Gowen, Michigan
Current Conditions -  °F | °C
As of 5:54 AM on Saturday 25 Oct 2014 (Local Time) from KY70 Reporting Station
Overcast Overcast  
Wind Chill: 53°   Ceiling: 2900
Heat Index: 53°   Visibility: 7mi
Dew Point: 50°   Wind: 8mph
Humidity: 89%   Direction: 260°W
Pressure: 29.84"   Gusts: NA
Location:  43.25°N, 85.3°W
Report Text: KY70 250954Z AUTO 26007KT 7SM OVC029 12/10 A2984 RMK AO2 T01170100
Loading
Personal Weather Stations






























Interactive Weather Map
Tropical Storm Tracking
New forecast layout! Learn more

10-Day Weather Forecast

Advertisements
Track Severe Weather on mobile